Latest Weather Observations for Esperance Airport

IDW60801

Issued at 8:05 am WST Saturday 2 August 2014 (issued every 30 minutes, with the page automatically refreshed every 10 minutes)

About weather observations | Map of weather stations | Latest weather observations for WA | Other Formats
Station Details ID: 009542 Name: ESPERANCE AERO Lat: -33.68 Lon: 121.83 Height: 142.0 m
Data from the previous 72 hours. | See also: Recent months at Esperance Airport
Date/Time
WST
Temp
°C
App
Temp
°C
Dew
Point
Rel
Hum
%
Delta-T
°C
Wind Press
QNH
hPa
Press
MSL
hPa
Rain
since 9 am
mm
Dir
 
Spd
km/h
Gust
km/h
Spd
kts
Gust
kts
02/08:00am 6.3 -0.7 4.1 86 0.9 N 30 39 16 21 1025.6 - 0.0
02/07:30am 5.2 -1.5 3.4 88 0.7 N 28 33 15 18 1025.7 - 0.0
02/07:00am 4.4 -1.6 3.4 93 0.4 N 24 32 13 17 1025.7 - 0.0
02/06:30am 4.1 -1.6 3.1 93 0.4 N 22 28 12 15 1025.8 - 0.0
02/06:00am 4.6 -1.0 3.3 91 0.5 N 22 30 12 16 1025.6 1025.6 0.0
02/05:30am 4.5 -1.1 3.2 91 0.5 N 22 28 12 15 1025.4 - 0.0
02/05:00am 4.8 -0.8 3.3 90 0.6 N 22 28 12 15 1025.1 - 0.0
02/04:30am 4.8 -0.5 3.1 89 0.7 N 20 26 11 14 1025.2 - 0.0
02/04:00am 5.0 -1.0 3.2 88 0.7 N 24 32 13 17 1024.6 - 0.0
02/03:30am 5.4 -0.6 3.3 86 0.9 N 24 30 13 16 1024.7 - 0.0
02/03:00am 5.4 -0.2 3.4 87 0.8 N 22 28 12 15 1024.4 1024.4 0.0
02/02:30am 5.0 -0.2 3.7 91 0.5 N 20 24 11 13 1024.5 - 0.0
02/02:00am 5.1 0.2 3.9 92 0.5 N 19 24 10 13 1025.0 - 0.0
02/01:30am 5.7 1.7 4.7 93 0.4 NNE 15 22 8 12 1025.3 - 0.0
02/01:00am 5.5 2.2 4.5 93 0.4 NNE 11 15 6 8 1025.6 - 0.0
02/12:30am 6.3 2.7 5.1 92 0.5 NNE 13 15 7 8 1025.7 - 0.0
02/12:00am 7.1 3.6 5.6 90 0.7 NE 13 17 7 9 1026.0 1026.1 0.0
 
Date/Time
WST
Temp
°C
App
Temp
°C
Dew
Point
Rel
Hum
%
Delta-T
°C
Wind Press
QNH
hPa
Press
MSL
hPa
Rain
since 9 am
mm
Dir
 
Spd
km/h
Gust
km/h
Spd
kts
Gust
kts
01/11:30pm 7.0 4.3 5.6 91 0.6 NE 9 13 5 7 1026.4 - 0.0
01/11:00pm 6.8 4.0 5.1 89 0.8 NE 9 11 5 6 1026.8 - 0.0
01/10:30pm 7.2 4.4 5.3 88 0.8 NE 9 13 5 7 1027.1 - 0.0
01/10:00pm 6.0 3.4 4.3 89 0.7 NE 7 9 4 5 1027.2 - 0.0
01/09:30pm 8.0 5.6 5.1 82 1.3 NE 7 11 4 6 1027.4 - 0.0
01/09:00pm 8.3 5.1 4.9 79 1.5 ENE 11 15 6 8 1027.3 1027.4 0.0
01/08:30pm 8.8 6.0 5.0 77 1.7 NE 9 11 5 6 1027.4 - 0.0
01/08:00pm 8.8 6.0 5.2 78 1.6 NE 9 11 5 6 1027.5 - 0.0
01/07:30pm 9.2 6.4 5.2 76 1.8 NNE 9 11 5 6 1027.7 - 0.0
01/07:00pm 9.2 6.8 5.4 77 1.7 NNE 7 9 4 5 1027.7 - 0.0
01/06:30pm 9.3 6.9 5.3 76 1.8 NNE 7 9 4 5 1027.7 - 0.0
01/06:00pm 9.5 7.1 5.3 75 1.9 N 7 7 4 4 1027.6 1027.7 0.0
01/05:30pm 10.2 8.1 6.0 75 2.0 N 6 7 3 4 1027.5 - 0.0
01/05:00pm 11.0 8.8 6.2 72 2.3 NNW 7 11 4 6 1027.4 - 0.0
01/04:30pm 12.4 10.2 6.0 65 3.0 NNW 7 11 4 6 1027.4 - 0.0
01/04:00pm 11.7 9.5 6.2 69 2.6 NNW 7 11 4 6 1027.6 - 0.0
01/03:30pm 13.3 10.6 5.7 60 3.6 NW 9 15 5 8 1027.6 - 0.0
01/03:00pm 13.6 9.1 6.2 61 3.5 N 19 24 10 13 1027.6 1027.7 0.0
01/02:30pm 13.3 10.0 6.4 63 3.3 WNW 13 20 7 11 1027.6 - 0.0
01/02:00pm 13.1 9.0 6.0 62 3.4 N 17 22 9 12 1027.6 - 0.0
01/01:30pm 13.2 10.0 6.8 65 3.1 NNW 13 20 7 11 1027.9 - 0.0
01/01:00pm 13.1 9.6 7.3 68 2.8 NW 15 20 8 11 1028.3 - 0.0
01/12:30pm 12.9 9.7 6.9 67 2.9 N 13 17 7 9 1028.8 - 0.0
01/12:00pm 12.9 9.4 7.1 68 2.8 NW 15 20 8 11 1029.1 1029.2 0.0
01/11:30am 13.6 11.2 8.7 72 2.5 NW 11 15 6 8 1029.6 - 0.0
01/11:00am 12.4 9.7 9.1 80 1.7 NNW 13 19 7 10 1029.6 - 0.0
01/10:30am 12.0 9.5 8.1 77 1.9 NW 11 15 6 8 1029.9 - 0.0
01/10:00am 11.0 9.2 9.3 89 0.9 WNW 9 13 5 7 1030.0 - 0.0
01/09:30am 10.4 9.1 9.2 92 0.6 W 6 9 3 5 1030.1 - 0.0
01/09:00am 10.1 8.6 9.0 93 0.5 WSW 7 11 4 6 1030.2 1030.3 0.0
01/08:30am 10.2 7.8 8.8 91 0.7 W 11 15 6 8 1029.7 - 0.0
01/08:00am 9.8 8.3 9.0 95 0.4 NNW 7 9 4 5 1029.3 - 0.0
01/07:30am 9.3 9.0 8.5 95 0.4 CALM 0 6 0 3 1029.0 - 0.0
01/07:00am 9.1 7.4 8.5 96 0.3 N 7 9 4 5 1028.7 - 0.0
01/06:30am 8.7 7.0 8.4 98 0.1 NNW 7 9 4 5 1028.4 - 0.0
01/06:00am 8.5 6.8 8.2 98 0.1 NNW 7 9 4 5 1028.0 1028.1 0.0
01/05:30am 8.5 6.0 8.1 97 0.2 NW 11 15 6 8 1027.7 - 0.0
01/05:00am 8.1 5.9 7.8 98 0.1 NW 9 11 5 6 1027.5 - 0.0
01/04:30am 7.8 5.6 7.7 99 0.0 NNW 9 11 5 6 1027.4 - 0.0
01/04:00am 8.1 6.7 7.3 95 0.4 ENE 4 6 2 3 1027.3 - 0.0
01/03:30am 9.2 7.1 8.1 93 0.5 SE 9 11 5 6 1027.3 - 0.0
01/03:00am 9.1 8.4 8.5 96 0.3 WNW 2 6 1 3 1027.3 1027.4 0.0
01/02:30am 9.3 9.0 8.5 95 0.4 CALM 0 0 0 0 1027.6 - 0.0
01/02:00am 9.3 9.0 8.5 95 0.4 CALM 0 0 0 0 1027.6 - 0.0
01/01:35am 9.4 8.6 8.3 93 0.5 S 2 7 1 4 1027.8 - 0.0
01/01:30am 9.4 7.7 8.3 93 0.5 S 7 17 4 9 1027.8 - 0.0
01/01:20am 9.5 7.0 8.3 92 0.6 S 11 17 6 9 1027.9 - 0.0
01/01:00am 9.9 7.7 8.0 88 0.9 S 9 13 5 7 1027.8 - 0.0
01/12:30am 9.8 7.5 7.4 85 1.1 SSW 9 11 5 6 1027.8 - 0.0
01/12:00am 9.3 8.7 7.6 89 0.8 CALM 0 6 0 3 1027.8 1027.9 0.0
 
Date/Time
WST
Temp
°C
App
Temp
°C
Dew
Point
Rel
Hum
%
Delta-T
°C
Wind Press
QNH
hPa
Press
MSL
hPa
Rain
since 9 am
mm
Dir
 
Spd
km/h
Gust
km/h
Spd
kts
Gust
kts
31/11:30pm 9.5 8.9 7.3 86 1.0 CALM 0 0 0 0 1027.9 - 0.0
31/11:00pm 9.3 8.7 7.3 87 1.0 CALM 0 6 0 3 1027.9 - 0.0
31/10:30pm 9.4 7.4 7.0 85 1.1 SSW 7 11 4 6 1027.8 - 0.0
31/10:00pm 9.5 6.3 6.8 83 1.3 SW 13 17 7 9 1027.8 - 0.0
31/09:30pm 9.0 4.9 6.3 83 1.3 SW 17 20 9 11 1027.8 - 0.0
31/09:00pm 8.6 5.2 5.9 83 1.2 WSW 13 19 7 10 1027.7 1027.8 0.0
31/08:30pm 10.0 5.9 6.3 78 1.7 SSW 17 22 9 12 1027.6 - 0.0
31/08:00pm 9.9 5.7 5.9 76 1.9 SW 17 22 9 12 1027.5 - 0.0
31/07:30pm 9.9 4.9 6.4 79 1.6 SSW 22 32 12 17 1027.6 - 0.0
31/07:00pm 9.7 5.2 7.0 83 1.3 SSW 20 30 11 16 1027.7 - 0.0
31/06:30pm 8.8 5.3 7.4 91 0.7 SW 15 19 8 10 1027.5 - 0.0
31/06:00pm 9.2 4.8 7.3 88 0.9 WSW 20 32 11 17 1027.4 1027.5 0.0
31/05:30pm 10.1 5.5 6.3 77 1.8 WSW 20 41 11 22 1027.1 - 0.0
31/05:00pm 10.7 5.5 5.7 71 2.3 WSW 22 30 12 16 1026.8 - 0.0
31/04:30pm 11.0 5.3 5.1 67 2.7 SW 24 33 13 18 1026.4 - 0.0
31/04:00pm 11.3 5.3 5.4 67 2.7 WSW 26 35 14 19 1026.1 - 0.0
31/03:30pm 11.5 4.7 5.2 65 2.9 SW 30 35 16 19 1025.9 - 0.0
31/03:00pm 11.8 5.7 4.8 62 3.2 SW 26 35 14 19 1025.6 1025.6 0.0
31/02:30pm 12.1 6.0 5.0 62 3.3 SW 26 35 14 19 1025.3 - 0.0
31/02:00pm 12.0 5.9 5.0 62 3.2 SW 26 33 14 18 1025.1 - 0.0
31/01:30pm 12.5 6.3 4.2 57 3.8 SW 26 37 14 20 1024.9 - 0.0
31/01:00pm 12.0 4.5 4.5 60 3.4 SSW 33 43 18 23 1024.9 - 0.0
31/12:30pm 12.9 6.4 6.5 65 3.1 SW 30 39 16 21 1024.8 - 0.0
31/12:00pm 11.4 4.3 6.3 71 2.4 SW 33 41 18 22 1024.9 1024.9 0.0
31/11:47am 11.9 4.8 6.6 70 2.5 SW 33 52 18 28 1024.8 - 0.0
31/11:30am 11.5 4.9 6.2 70 2.5 SW 30 41 16 22 1025.0 - 0.0
31/11:00am 11.0 4.7 7.3 78 1.8 SW 30 43 16 23 1024.9 - 0.0
31/10:47am 11.5 4.5 6.8 73 2.3 SSW 33 52 18 28 1024.8 - 0.0
31/10:30am 11.1 2.8 6.0 71 2.4 SW 39 52 21 28 1024.6 - 0.0
31/10:24am 11.4 5.2 6.3 71 2.4 SW 28 50 15 27 1024.6 - 0.0
31/10:00am 11.5 4.6 4.5 62 3.2 SW 30 41 16 22 1024.3 - 0.0
31/09:30am 11.6 4.9 5.5 66 2.8 SW 30 43 16 23 1023.9 - 0.0
31/09:00am 11.0 4.2 5.3 68 2.6 SW 30 41 16 22 1023.4 1023.5 1.8
31/08:30am 10.8 4.0 4.9 67 2.7 SW 30 43 16 23 1023.1 - 1.8
31/08:00am 10.5 2.5 5.9 73 2.1 SSW 37 48 20 26 1022.5 - 1.8
31/07:30am 10.6 3.6 6.9 78 1.8 SW 33 54 18 29 1021.9 - 1.8
31/07:28am 10.7 3.7 7.0 78 1.8 SW 33 52 18 28 1021.9 - 1.8
31/07:00am 10.3 3.1 7.7 84 1.3 SW 35 43 19 23 1021.5 - 1.8
31/06:30am 9.6 2.7 8.8 95 0.4 SSW 35 48 19 26 1021.0 - 1.8
31/06:22am 10.0 2.7 8.6 91 0.7 SSW 37 48 20 26 1020.9 - 1.8
31/06:02am 9.6 3.4 9.3 98 0.1 WSW 32 50 17 27 1020.7 - 1.6
31/06:00am 9.6 2.8 9.1 97 0.2 WSW 35 50 19 27 1020.7 1020.8 1.6
31/05:30am 10.9 4.6 9.0 88 1.0 SW 32 44 17 24 1019.9 - 1.6
31/05:00am 10.7 2.7 9.1 90 0.8 SW 41 61 22 33 1019.5 - 1.6
31/04:58am 10.6 2.2 9.0 90 0.8 SW 43 61 23 33 1019.6 - 1.6
31/04:30am 11.2 4.4 7.9 80 1.6 SW 33 44 18 24 1019.2 - 1.6
31/04:00am 11.9 2.4 6.8 71 2.5 SW 46 59 25 32 1018.8 - 1.6
31/03:30am 11.6 3.7 7.9 78 1.8 SW 39 57 21 31 1018.5 - 1.6
31/03:29am 11.7 3.8 8.0 78 1.8 SW 39 57 21 31 1018.5 - 1.6
31/03:00am 11.7 3.2 8.7 82 1.5 SW 43 57 23 31 1018.2 1018.2 1.6
31/02:30am 11.7 3.7 10.4 92 0.7 SW 43 61 23 33 1017.8 - 1.6
31/02:24am 11.8 4.6 10.4 91 0.7 WSW 39 59 21 32 1017.8 - 1.6
31/02:02am 11.5 5.6 11.3 99 0.1 WSW 33 43 18 23 1017.5 - 1.6
31/02:00am 11.7 5.5 11.5 99 0.1 WSW 35 46 19 25 1017.5 - 1.6
31/01:55am 11.6 5.4 11.4 99 0.1 WSW 35 46 19 25 1017.4 - 1.6
31/01:30am 11.4 5.7 11.2 99 0.1 WSW 32 44 17 24 1017.4 - 1.4
31/01:04am 11.0 4.6 10.8 99 0.1 WSW 35 54 19 29 1017.3 - 0.8
31/01:03am 11.0 4.2 10.8 99 0.1 WSW 37 54 20 29 1017.3 - 0.8
31/01:00am 11.0 4.2 10.8 99 0.1 WSW 37 54 20 29 1017.3 - 0.6
31/12:45am 11.8 4.6 10.7 93 0.6 W 39 56 21 30 1016.7 - 0.0
31/12:30am 12.7 5.5 10.4 86 1.2 W 39 54 21 29 1016.4 - 0.0
31/12:00am 12.2 6.0 10.1 87 1.1 W 33 46 18 25 1016.3 1016.4 0.0
 
Date/Time
WST
Temp
°C
App
Temp
°C
Dew
Point
Rel
Hum
%
Delta-T
°C
Wind Press
QNH
hPa
Press
MSL
hPa
Rain
since 9 am
mm
Dir
 
Spd
km/h
Gust
km/h
Spd
kts
Gust
kts
30/11:30pm 11.9 5.9 10.0 88 1.0 W 32 41 17 22 1016.4 - 0.0
30/11:00pm 12.1 6.5 10.2 88 1.0 W 30 35 16 19 1016.3 - 0.0
30/10:30pm 12.6 6.7 10.3 86 1.2 W 32 46 17 25 1016.2 - 0.0
30/10:00pm 12.6 6.6 10.1 85 1.3 WNW 32 41 17 22 1015.9 - 0.0
30/09:30pm 12.9 7.0 10.3 84 1.4 WNW 32 46 17 25 1015.5 - 0.0
30/09:00pm 13.0 7.5 10.4 84 1.4 WNW 30 39 16 21 1015.7 1015.8 0.0
30/08:30pm 13.2 8.0 10.4 83 1.5 WNW 28 37 15 20 1015.8 - 0.0
30/08:00pm 13.7 8.1 10.1 79 1.9 WNW 30 43 16 23 1016.1 - 0.0
30/07:30pm 13.9 8.7 10.1 78 2.0 WNW 28 37 15 20 1016.1 - 0.0
30/07:00pm 14.3 9.4 10.1 76 2.2 NW 26 33 14 18 1016.3 - 0.0
30/06:30pm 14.5 9.3 10.1 75 2.3 WNW 28 35 15 19 1016.2 - 0.0
30/06:00pm 14.8 9.5 10.0 73 2.5 WNW 28 33 15 18 1016.1 1016.2 0.0
30/05:30pm 15.0 9.8 10.2 73 2.5 WNW 28 35 15 19 1016.0 - 0.0
30/05:00pm 15.6 10.5 10.6 72 2.7 WNW 28 35 15 19 1015.7 - 0.0
30/04:30pm 16.5 11.5 10.8 69 3.1 W 28 39 15 21 1015.6 - 0.0
30/04:00pm 16.8 10.7 10.4 66 3.4 W 33 44 18 24 1015.5 - 0.0
30/03:30pm 17.6 10.9 10.9 65 3.6 W 37 48 20 26 1015.4 - 0.0
30/03:00pm 18.1 11.0 11.0 63 3.9 W 39 48 21 26 1015.4 1015.5 0.0
30/02:30pm 18.0 10.8 10.6 62 4.0 W 39 50 21 27 1015.5 - 0.0
30/02:00pm 17.6 12.2 10.9 65 3.6 W 30 39 16 21 1015.6 - 0.0
30/01:30pm 16.9 9.6 10.3 65 3.5 W 39 50 21 27 1015.9 - 0.0
30/01:00pm 17.3 11.1 11.3 68 3.3 W 35 44 19 24 1016.4 - 0.0
30/12:30pm 16.7 9.9 10.5 67 3.3 W 37 48 20 26 1016.7 - 0.0
30/12:00pm 16.4 10.1 10.9 70 3.0 WNW 35 46 19 25 1017.2 1017.2 0.0
30/11:30am 16.0 9.5 10.3 69 3.0 WNW 35 44 19 24 1017.6 - 0.0
30/11:00am 16.1 9.1 11.1 72 2.7 W 39 50 21 27 1017.9 - 0.0
30/10:30am 15.4 8.6 10.6 73 2.6 WNW 37 50 20 27 1018.4 - 0.0
30/10:00am 15.2 8.1 10.8 75 2.3 W 39 54 21 29 1018.9 - 0.0
30/09:54am 15.7 10.0 11.1 74 2.5 WNW 32 50 17 27 1018.9 - 0.0
30/09:30am 14.4 8.6 11.4 82 1.6 WNW 33 41 18 22 1018.9 - 0.0
30/09:00am 13.7 8.0 11.2 85 1.3 WNW 32 41 17 22 1018.8 1018.8 0.0
30/08:30am 13.4 8.2 11.5 88 1.0 WNW 30 39 16 21 1018.8 - 0.0

Other Formats:

Comma delimited format used in spreadsheet applications
http://www.bom.gov.au/fwo/IDW60801/IDW60801.95638.axf

JavaScript Object Notation format (JSON) in row-major order
http://www.bom.gov.au/fwo/IDW60801/IDW60801.95638.json